TimeCST,TemperatureF,Dew PointF,Humidity,Sea Level PressureIn,VisibilityMPH,Wind Direction,Wind SpeedMPH,Gust SpeedMPH,PrecipitationIn,Events,Conditions,WindDirDegrees,DateUTC
12:15 AM,28.4,19.4,69,29.98,10.0,North,6.9,-,N/A,,Clear,10,2012-11-30 06:15:00
12:35 AM,28.4,19.4,69,29.98,10.0,North,8.1,-,N/A,,Clear,10,2012-11-30 06:35:00
12:55 AM,26.6,19.4,74,29.99,10.0,North,9.2,-,N/A,,Clear,10,2012-11-30 06:55:00
1:15 AM,28.4,19.4,69,29.99,10.0,North,9.2,-,N/A,,Clear,360,2012-11-30 07:15:00
1:35 AM,26.6,19.4,74,29.99,10.0,North,9.2,-,N/A,,Clear,10,2012-11-30 07:35:00
1:55 AM,26.6,19.4,74,30.00,10.0,North,9.2,-,N/A,,Clear,350,2012-11-30 07:55:00
2:15 AM,24.8,17.6,74,30.00,8.0,North,8.1,-,N/A,,Clear,360,2012-11-30 08:15:00
2:35 AM,26.6,19.4,74,30.01,7.0,North,8.1,-,N/A,,Clear,360,2012-11-30 08:35:00
3:15 AM,24.8,17.6,74,30.03,5.0,North,10.4,-,N/A,,Clear,350,2012-11-30 09:15:00
3:35 AM,26.6,19.4,74,30.02,6.0,North,8.1,-,N/A,,Clear,10,2012-11-30 09:35:00
3:55 AM,24.8,17.6,74,30.03,5.0,NNW,9.2,-,N/A,,Clear,340,2012-11-30 09:55:00
4:15 AM,23.0,17.6,80,30.04,5.0,North,9.2,-,N/A,,Clear,350,2012-11-30 10:15:00
4:35 AM,24.8,19.4,80,30.03,5.0,North,9.2,-,N/A,,Clear,360,2012-11-30 10:35:00
4:55 AM,24.8,19.4,80,30.02,5.0,North,9.2,-,N/A,,Clear,360,2012-11-30 10:55:00
5:15 AM,24.8,17.6,74,30.03,5.0,North,11.5,-,N/A,,Clear,360,2012-11-30 11:15:00
5:35 AM,23.0,17.6,80,30.04,5.0,North,9.2,-,N/A,,Clear,350,2012-11-30 11:35:00
5:55 AM,23.0,17.6,80,30.04,5.0,North,6.9,-,N/A,,Clear,350,2012-11-30 11:55:00
6:15 AM,21.2,15.8,80,30.06,4.0,North,10.4,-,N/A,,Clear,350,2012-11-30 12:15:00
6:35 AM,21.2,15.8,80,30.06,4.0,North,9.2,-,N/A,,Clear,350,2012-11-30 12:35:00
6:55 AM,21.2,15.8,80,30.07,5.0,North,10.4,-,N/A,,Clear,350,2012-11-30 12:55:00
7:15 AM,21.2,15.8,80,30.08,5.0,North,6.9,-,N/A,,Clear,350,2012-11-30 13:15:00
7:35 AM,21.2,15.8,80,30.07,3.0,North,9.2,-,N/A,,Clear,350,2012-11-30 13:35:00
7:55 AM,21.2,15.8,80,30.08,3.0,North,9.2,-,N/A,,Clear,350,2012-11-30 13:55:00
8:15 AM,21.2,15.8,80,30.08,4.0,North,6.9,-,N/A,,Clear,10,2012-11-30 14:15:00
8:35 AM,23.0,17.6,80,30.07,4.0,NNE,9.2,-,N/A,,Clear,20,2012-11-30 14:35:00
8:55 AM,24.8,17.6,74,30.08,4.0,NNE,6.9,-,N/A,,Clear,20,2012-11-30 14:55:00
9:15 AM,26.6,19.4,74,30.08,4.0,NNE,9.2,-,N/A,,Clear,30,2012-11-30 15:15:00
9:35 AM,26.6,21.2,80,30.09,4.0,NE,8.1,-,N/A,,Clear,50,2012-11-30 15:35:00
9:55 AM,28.4,21.2,74,30.10,5.0,NE,4.6,-,N/A,,Clear,40,2012-11-30 15:55:00
10:15 AM,30.2,21.2,69,30.12,5.0,NNE,4.6,-,N/A,,Clear,30,2012-11-30 16:15:00
10:35 AM,30.2,23.0,75,30.11,5.0,NE,4.6,-,N/A,,Clear,50,2012-11-30 16:35:00
10:55 AM,32.0,23.0,69,30.10,5.0,NE,8.1,-,N/A,,Clear,50,2012-11-30 16:55:00
11:15 AM,33.8,24.8,70,30.10,6.0,ENE,8.1,-,N/A,,Clear,60,2012-11-30 17:15:00
11:35 AM,33.8,24.8,70,30.08,6.0,ENE,6.9,-,N/A,,Clear,70,2012-11-30 17:35:00
11:55 AM,35.6,24.8,65,30.10,7.0,NE,4.6,-,N/A,,Clear,50,2012-11-30 17:55:00
12:15 PM,35.6,24.8,65,30.09,7.0,ENE,4.6,-,N/A,,Clear,60,2012-11-30 18:15:00
12:35 PM,35.6,26.6,70,30.07,7.0,East,8.1,-,N/A,,Clear,90,2012-11-30 18:35:00
12:55 PM,37.4,26.6,65,30.06,7.0,ENE,9.2,-,N/A,,Clear,60,2012-11-30 18:55:00
1:15 PM,37.4,26.6,65,30.06,7.0,East,8.1,-,N/A,,Clear,80,2012-11-30 19:15:00
1:35 PM,39.2,26.6,61,30.05,7.0,East,8.1,-,N/A,,Clear,100,2012-11-30 19:35:00
1:55 PM,39.2,26.6,61,30.05,7.0,East,8.1,-,N/A,,Clear,90,2012-11-30 19:55:00
2:15 PM,39.2,28.4,65,30.05,7.0,East,8.1,-,N/A,,Clear,100,2012-11-30 20:15:00
2:35 PM,41.0,28.4,61,30.05,7.0,SE,8.1,-,N/A,,Clear,130,2012-11-30 20:35:00
2:55 PM,41.0,28.4,61,30.04,7.0,ESE,8.1,-,N/A,,Clear,120,2012-11-30 20:55:00
3:15 PM,41.0,28.4,61,30.04,8.0,ESE,8.1,-,N/A,,Clear,120,2012-11-30 21:15:00
3:35 PM,39.2,28.4,65,30.04,8.0,East,8.1,-,N/A,,Clear,100,2012-11-30 21:35:00
3:55 PM,39.2,28.4,65,30.03,8.0,ESE,11.5,-,N/A,,Clear,110,2012-11-30 21:55:00
4:15 PM,39.2,26.6,61,30.03,7.0,ESE,10.4,-,N/A,,Clear,110,2012-11-30 22:15:00
4:35 PM,37.4,26.6,65,30.03,7.0,ESE,9.2,-,N/A,,Clear,120,2012-11-30 22:35:00
4:55 PM,35.6,24.8,65,30.03,6.0,ESE,8.1,-,N/A,,Clear,110,2012-11-30 22:55:00
5:15 PM,33.8,24.8,70,30.04,6.0,ESE,4.6,-,N/A,,Clear,110,2012-11-30 23:15:00
5:35 PM,33.8,24.8,70,30.04,7.0,SSE,5.8,-,N/A,,Clear,150,2012-11-30 23:35:00
5:55 PM,33.8,24.8,70,30.04,7.0,SE,6.9,-,N/A,,Clear,130,2012-11-30 23:55:00
6:15 PM,30.2,23.0,75,30.03,5.0,ESE,6.9,-,N/A,,Clear,120,2012-12-01 00:15:00
6:35 PM,30.2,23.0,75,30.02,5.0,East,6.9,-,N/A,,Clear,100,2012-12-01 00:35:00
6:55 PM,28.4,23.0,80,30.01,5.0,ESE,4.6,-,N/A,,Clear,120,2012-12-01 00:55:00
7:15 PM,28.4,21.2,74,30.01,5.0,SE,6.9,-,N/A,,Clear,130,2012-12-01 01:15:00
7:35 PM,30.2,24.8,80,30.00,5.0,SE,8.1,-,N/A,,Clear,140,2012-12-01 01:35:00
7:55 PM,32.0,24.8,75,29.99,5.0,SE,11.5,-,N/A,,Clear,130,2012-12-01 01:55:00
8:15 PM,32.0,24.8,75,29.99,5.0,SE,11.5,-,N/A,,Clear,130,2012-12-01 02:15:00
8:35 PM,33.8,26.6,75,29.99,5.0,SE,13.8,-,N/A,,Clear,140,2012-12-01 02:35:00
8:55 PM,33.8,26.6,75,29.96,4.0,SE,17.3,-,N/A,,Clear,140,2012-12-01 02:55:00
9:15 PM,33.8,28.4,81,29.97,4.0,SSE,17.3,20.7,N/A,,Clear,150,2012-12-01 03:15:00
9:35 PM,35.6,28.4,75,29.97,4.0,SE,13.8,-,N/A,,Clear,140,2012-12-01 03:35:00
9:55 PM,33.8,28.4,81,29.97,4.0,SSE,12.7,-,N/A,,Clear,150,2012-12-01 03:55:00
10:15 PM,35.6,28.4,75,29.97,4.0,SSE,12.7,18.4,N/A,,Clear,150,2012-12-01 04:15:00
10:35 PM,35.6,28.4,75,29.97,4.0,SSE,12.7,18.4,N/A,,Clear,160,2012-12-01 04:35:00
10:55 PM,35.6,28.4,75,29.97,4.0,SSE,15.0,21.9,N/A,,Clear,160,2012-12-01 04:55:00
11:15 PM,35.6,28.4,75,29.97,3.0,SSE,16.1,20.7,N/A,,Clear,160,2012-12-01 05:15:00
11:35 PM,35.6,28.4,75,29.97,3.0,SSE,13.8,19.6,N/A,,Clear,160,2012-12-01 05:35:00
11:55 PM,33.8,28.4,81,29.96,3.0,SSE,12.7,-,N/A,,Clear,150,2012-12-01 05:55:00